Time;durP1;ratioP1;P1;durP2;ratioP2;P2;SDS_P1;SDS_P2;PMS_P1;PMS_P2;Temp;Humidity;BMP_temperature;BMP_pressure;BME280_temperature;BME280_humidity;BME280_pressure;Samples;Min_cycle;Max_cycle;Signal;HPM_P1;HPM_P2
2023/06/13 00:00:44;;;;;;;5.15;4.40;;;;;;;21.26;47.34;101441.16;4980184;28;20337;-81
2023/06/13 00:03:11;;;;;;;4.70;3.88;;;;;;;21.23;46.49;101436.09;4963346;28;20114;-81
2023/06/13 00:05:37;;;;;;;7.93;4.50;;;;;;;21.15;46.02;101436.66;4962768;28;20080;-81
2023/06/13 00:08:03;;;;;;;4.78;4.28;;;;;;;21.11;46.47;101437.84;4980014;28;20258;-81
2023/06/13 00:10:28;;;;;;;4.35;4.03;;;;;;;21.09;46.27;101437.13;4980391;28;20070;-81
2023/06/13 00:12:54;;;;;;;5.05;4.50;;;;;;;21.08;46.71;101433.63;4962631;28;20085;-81
2023/06/13 00:15:19;;;;;;;8.73;4.70;;;;;;;20.99;46.49;101439.66;4963046;28;20033;-81
2023/06/13 00:17:48;;;;;;;5.13;4.10;;;;;;;20.90;46.79;101438.50;4980379;28;20050;-81
2023/06/13 00:20:13;;;;;;;5.05;4.50;;;;;;;20.86;47.12;101430.84;4962591;28;20077;-81
2023/06/13 00:22:38;;;;;;;5.05;4.45;;;;;;;20.81;47.14;101433.88;4980304;28;20042;-81
2023/06/13 00:25:04;;;;;;;7.40;4.60;;;;;;;20.78;46.95;101428.78;4979899;28;20085;-81
2023/06/13 00:27:31;;;;;;;4.72;4.32;;;;;;;20.76;47.05;101429.88;4980614;28;20034;-81
2023/06/13 00:29:57;;;;;;;5.40;4.55;;;;;;;20.76;47.00;101429.88;4962010;28;20041;-81
2023/06/13 00:32:22;;;;;;;5.75;4.18;;;;;;;20.71;47.21;101432.84;4962384;28;20038;-81
2023/06/13 00:34:48;;;;;;;7.25;4.57;;;;;;;20.65;47.53;101428.84;4979794;28;20050;-81
2023/06/13 00:37:14;;;;;;;8.05;4.90;;;;;;;20.60;46.87;101436.28;4962910;28;20038;-82
2023/06/13 00:39:40;;;;;;;4.70;4.20;;;;;;;20.64;47.23;101436.94;4980293;28;20588;-81
2023/06/13 00:42:06;;;;;;;5.22;4.50;;;;;;;20.57;47.42;101433.00;4979295;28;20077;-81
2023/06/13 00:44:33;;;;;;;4.50;4.10;;;;;;;20.47;47.60;101431.00;4979878;28;20098;-81
2023/06/13 00:46:59;;;;;;;4.75;4.35;;;;;;;20.40;47.44;101431.56;4979228;28;20030;-81
2023/06/13 00:49:25;;;;;;;5.72;4.20;;;;;;;20.34;47.65;101419.56;4962461;28;20391;-81
2023/06/13 00:51:51;;;;;;;5.05;4.32;;;;;;;20.28;47.68;101420.88;4978810;28;20038;-81
2023/06/13 00:54:18;;;;;;;5.05;4.55;;;;;;;20.33;47.39;101420.53;4980169;28;20322;-81
2023/06/13 00:56:45;;;;;;;5.03;4.30;;;;;;;20.26;47.66;101420.09;4979751;28;20031;-81
2023/06/13 00:59:12;;;;;;;10.02;4.55;;;;;;;20.20;48.27;101419.72;4979471;28;20105;-81
2023/06/13 01:04:22;;;;;;;6.45;4.05;;;;;;;20.16;47.93;101424.41;4867121;23;20069;-72
2023/06/13 01:06:49;;;;;;;8.55;3.92;;;;;;;20.23;47.67;101417.69;5037502;28;20366;-72
2023/06/13 01:09:16;;;;;;;9.02;4.47;;;;;;;20.17;47.84;101422.59;5036601;28;20041;-72
2023/06/13 01:12:01;;;;;;;4.57;4.18;;;;;;;20.24;47.40;101415.88;5036466;28;20367;-72
2023/06/13 01:14:55;;;;;;;4.72;4.10;;;;;;;20.11;47.69;101419.41;5038210;28;20262;-72
2023/06/13 01:17:33;;;;;;;4.07;3.78;;;;;;;20.11;47.74;101413.25;5037676;28;20209;-72
2023/06/13 01:20:03;;;;;;;5.05;4.10;;;;;;;20.06;47.93;101410.91;5037126;28;20044;-72
2023/06/13 01:23:06;;;;;;;5.05;4.55;;;;;;;20.08;47.43;101409.00;5019882;28;20352;-72
2023/06/13 01:25:52;;;;;;;6.15;4.20;;;;;;;20.05;47.39;101414.53;5037739;28;20075;-72
2023/06/13 01:28:20;;;;;;;4.43;4.13;;;;;;;20.05;47.28;101419.84;5021079;28;20337;-72
2023/06/13 01:30:47;;;;;;;5.43;4.28;;;;;;;19.94;46.90;101415.31;5037719;28;20029;-72
2023/06/13 01:33:16;;;;;;;4.38;4.07;;;;;;;19.93;47.82;101412.75;5037418;28;20048;-71
2023/06/13 01:35:42;;;;;;;;;;;;;;;19.98;47.20;101412.44;5038533;28;20529;-71
2023/06/13 01:38:08;;;;;;;7.35;4.30;;;;;;;19.94;47.35;101417.97;5036767;28;19924;-71
2023/06/13 01:40:34;;;;;;;4.15;3.85;;;;;;;19.88;47.32;101417.53;5037765;28;20037;-71
2023/06/13 01:42:59;;;;;;;4.75;4.30;;;;;;;19.91;47.06;101412.03;5036529;28;20025;-71
2023/06/13 01:45:25;;;;;;;6.03;4.20;;;;;;;19.84;47.07;101411.59;5036889;28;20096;-71
2023/06/13 01:48:20;;;;;;;5.60;4.13;;;;;;;19.88;46.89;101415.75;5037333;28;20144;-71
2023/06/13 01:50:50;;;;;;;3.95;3.65;;;;;;;19.88;47.31;101406.91;5037666;28;20037;-71
2023/06/13 01:53:36;;;;;;;6.07;4.35;;;;;;;19.85;47.25;101409.81;5037110;28;20229;-71
2023/06/13 01:56:08;;;;;;;4.63;4.22;;;;;;;19.80;47.41;101417.25;5037065;28;20021;-71
2023/06/13 01:58:48;;;;;;;9.20;3.92;;;;;;;19.74;47.70;101411.41;5037435;28;20040;-71
2023/06/13 02:01:14;;;;;;;3.92;3.63;;;;;;;19.70;47.72;101409.91;5037119;28;20040;-71
2023/06/13 02:03:40;;;;;;;6.25;3.65;;;;;;;19.73;47.48;101416.81;5037100;28;20045;-71
2023/06/13 02:06:05;;;;;;;7.30;3.83;;;;;;;19.66;48.09;101405.72;5037057;28;20096;-71
2023/06/13 02:08:31;;;;;;;6.85;4.22;;;;;;;19.54;48.37;101402.13;5037301;28;20033;-71
2023/06/13 02:10:56;;;;;;;4.30;4.00;;;;;;;19.64;48.31;101405.00;5017143;28;20076;-71
2023/06/13 02:13:22;;;;;;;5.78;4.18;;;;;;;19.60;48.25;101408.00;5032300;28;20051;-71
2023/06/13 02:15:47;;;;;;;4.45;4.05;;;;;;;19.49;48.56;101406.06;5037071;28;20048;-71
2023/06/13 02:18:15;;;;;;;6.95;4.35;;;;;;;19.50;48.38;101405.09;5036874;28;20079;-71
2023/06/13 02:20:40;;;;;;;4.40;3.88;;;;;;;19.46;48.36;101400.97;5037335;28;20041;-71
2023/06/13 02:23:06;;;;;;;4.13;3.67;;;;;;;19.52;48.58;101408.53;5036421;28;20033;-71
2023/06/13 02:25:31;;;;;;;4.57;4.20;;;;;;;19.40;48.68;101404.06;5037276;28;20045;-71
2023/06/13 02:27:57;;;;;;;4.35;4.05;;;;;;;19.36;48.67;101404.25;5036537;28;20218;-71
2023/06/13 02:30:22;;;;;;;4.90;3.90;;;;;;;19.38;48.60;101404.16;5037166;28;20102;-71
2023/06/13 02:32:49;;;;;;;5.22;3.90;;;;;;;19.25;48.34;101406.81;5036017;28;20293;-71
2023/06/13 02:35:14;;;;;;;4.70;4.30;;;;;;;19.22;48.78;101396.38;5036971;28;20240;-71
2023/06/13 02:37:40;;;;;;;7.05;3.97;;;;;;;19.14;49.23;101401.38;5037005;28;20095;-71
2023/06/13 02:40:07;;;;;;;5.60;3.97;;;;;;;19.25;49.13;101406.81;5036809;28;20037;-71
2023/06/13 02:42:33;;;;;;;4.90;4.10;;;;;;;19.17;49.33;101411.78;5036508;28;20033;-71
2023/06/13 02:44:58;;;;;;;6.30;3.90;;;;;;;19.10;49.86;101414.00;5036538;28;20053;-71
2023/06/13 02:47:24;;;;;;;4.05;3.55;;;;;;;19.13;50.03;101413.78;5036504;28;20037;-71
2023/06/13 02:49:49;;;;;;;4.50;4.10;;;;;;;19.06;50.13;101415.16;5036684;28;20041;-71
2023/06/13 02:52:15;;;;;;;6.63;4.30;;;;;;;19.03;50.60;101412.72;5036481;28;20030;-71
2023/06/13 02:54:40;;;;;;;4.65;4.25;;;;;;;18.95;50.52;101413.22;5036919;28;20316;-71
2023/06/13 02:57:07;;;;;;;11.20;4.65;;;;;;;18.85;50.51;101413.97;5037912;28;20052;-72
2023/06/13 02:59:33;;;;;;;5.57;4.05;;;;;;;18.79;50.95;101412.50;5041250;28;20403;-72
2023/06/13 03:01:58;;;;;;;4.50;4.10;;;;;;;18.85;50.72;101412.16;5039943;28;20025;-72
2023/06/13 03:04:24;;;;;;;5.50;4.53;;;;;;;18.85;50.55;101412.16;5037482;28;20138;-72
2023/06/13 03:06:50;;;;;;;4.53;4.13;;;;;;;18.80;50.76;101415.06;5021311;28;20120;-73
2023/06/13 03:09:15;;;;;;;5.25;4.40;;;;;;;18.70;51.24;101415.78;5039905;28;20041;-73
2023/06/13 03:11:41;;;;;;;9.57;4.20;;;;;;;18.75;51.32;101416.31;5039771;28;20112;-73
2023/06/13 03:14:07;;;;;;;5.90;4.00;;;;;;;18.74;51.51;101420.78;5039661;28;20045;-73
2023/06/13 03:16:32;;;;;;;4.20;3.90;;;;;;;18.76;50.95;101418.03;5040310;28;20057;-73
2023/06/13 03:18:58;;;;;;;8.18;4.50;;;;;;;18.70;51.10;101423.72;5039811;28;20067;-72
2023/06/13 03:21:23;;;;;;;6.13;4.55;;;;;;;18.76;51.36;101418.88;5039933;28;20379;-72
2023/06/13 03:23:49;;;;;;;4.75;4.32;;;;;;;18.67;51.64;101414.19;5039706;28;20280;-72
2023/06/13 03:26:16;;;;;;;4.88;4.40;;;;;;;18.69;51.31;101412.28;5040093;28;20021;-72
2023/06/13 03:28:42;;;;;;;5.05;4.38;;;;;;;18.61;51.50;101418.09;5040402;28;20033;-72
2023/06/13 03:31:08;;;;;;;4.85;4.43;;;;;;;18.62;51.40;101410.97;5039477;28;20284;-72
2023/06/13 03:33:33;;;;;;;4.68;4.28;;;;;;;18.56;51.99;101414.88;5040176;28;20033;-72
2023/06/13 03:35:59;;;;;;;5.07;4.25;;;;;;;18.62;51.75;101410.97;5040369;28;20063;-72
2023/06/13 03:38:27;;;;;;;5.72;4.20;;;;;;;18.51;52.08;101413.47;5039169;28;20414;-72
2023/06/13 03:40:52;;;;;;;4.05;3.75;;;;;;;18.56;52.24;101412.22;5039153;28;20033;-73
2023/06/13 03:43:18;;;;;;;5.05;4.65;;;;;;;18.52;52.35;101416.03;5039691;28;20081;-72
2023/06/13 03:45:43;;;;;;;5.95;4.43;;;;;;;18.48;52.44;101418.97;5039942;28;20096;-72
2023/06/13 03:48:09;;;;;;;5.45;4.32;;;;;;;18.45;52.76;101417.38;5039112;28;20033;-72
2023/06/13 03:50:34;;;;;;;4.57;4.25;;;;;;;18.49;52.77;101415.38;5040043;28;20083;-72
2023/06/13 03:52:59;;;;;;;6.10;4.57;;;;;;;18.46;52.81;101418.22;5039442;28;20029;-72
2023/06/13 03:55:25;;;;;;;8.65;4.70;;;;;;;18.48;52.56;101418.97;5039931;28;20063;-72
2023/06/13 03:57:50;;;;;;;6.13;4.63;;;;;;;18.40;53.14;101420.31;5038461;28;20099;-72
2023/06/13 04:00:16;;;;;;;7.85;4.38;;;;;;;18.43;52.92;101419.28;5039322;28;20025;-72
2023/06/13 04:02:41;;;;;;;6.32;4.40;;;;;;;18.42;52.49;101415.75;5039310;28;20048;-72
2023/06/13 04:05:08;;;;;;;7.15;4.72;;;;;;;18.41;52.55;101418.53;5038285;28;20041;-72
2023/06/13 04:07:33;;;;;;;5.13;4.63;;;;;;;18.42;52.98;101421.06;5039722;28;20119;-72
2023/06/13 04:10:02;;;;;;;6.43;4.43;;;;;;;18.45;53.13;101420.03;5038261;28;20331;-72
2023/06/13 04:12:28;;;;;;;6.25;5.28;;;;;;;18.36;53.76;101412.69;5036542;28;20045;-72
2023/06/13 04:14:54;;;;;;;8.25;5.03;;;;;;;18.22;54.43;101422.34;5039312;28;20048;-72
2023/06/13 04:17:19;;;;;;;4.97;4.50;;;;;;;18.16;55.17;101424.56;5039052;28;20040;-72
2023/06/13 04:19:45;;;;;;;9.20;4.97;;;;;;;18.13;55.13;101420.28;5039229;28;20224;-72
2023/06/13 04:22:10;;;;;;;4.60;4.30;;;;;;;18.07;55.95;101428.63;5038560;28;20064;-72
2023/06/13 04:24:36;;;;;;;6.18;4.45;;;;;;;18.12;56.05;101429.19;5038686;28;20109;-72
2023/06/13 04:27:03;;;;;;;5.15;4.65;;;;;;;18.16;55.47;101428.06;5038867;28;20040;-72
2023/06/13 04:29:29;;;;;;;6.15;4.50;;;;;;;18.10;55.89;101428.44;5038141;28;20370;-72
2023/06/13 04:31:55;;;;;;;12.82;5.03;;;;;;;18.06;56.32;101431.38;5018319;28;20037;-72
2023/06/13 04:34:23;;;;;;;7.05;4.47;;;;;;;18.10;56.30;101424.94;5037962;28;20033;-72
2023/06/13 04:36:49;;;;;;;11.30;4.93;;;;;;;18.12;56.54;101433.63;5038249;28;20041;-72
2023/06/13 04:39:15;;;;;;;5.20;4.70;;;;;;;18.11;56.48;101431.94;5039081;28;20049;-72
2023/06/13 04:41:43;;;;;;;12.82;4.97;;;;;;;18.09;56.56;101437.34;5038336;28;20033;-72
2023/06/13 04:44:09;;;;;;;5.65;4.70;;;;;;;18.08;56.69;101430.34;5038375;28;20041;-72
2023/06/13 04:46:36;;;;;;;6.28;4.75;;;;;;;18.16;56.42;101441.31;5038493;28;20037;-72
2023/06/13 04:49:02;;;;;;;4.90;4.50;;;;;;;18.16;56.57;101438.66;5038047;28;20029;-72
2023/06/13 04:51:28;;;;;;;6.22;4.70;;;;;;;18.13;57.08;101435.34;5035175;28;20103;-72
2023/06/13 04:53:57;;;;;;;6.80;4.10;;;;;;;18.20;56.98;101439.31;5036617;28;20403;-72
2023/06/13 04:56:24;;;;;;;4.88;4.38;;;;;;;18.20;57.20;101439.31;5036976;28;20029;-72
2023/06/13 04:58:50;;;;;;;4.97;4.47;;;;;;;18.27;57.11;101443.28;5037488;28;20339;-72
2023/06/13 05:01:17;;;;;;;8.88;5.10;;;;;;;18.22;56.81;101448.00;5034929;28;20250;-72
2023/06/13 05:03:43;;;;;;;5.78;4.65;;;;;;;18.31;56.31;101449.25;5037005;28;20060;-72
2023/06/13 05:06:08;;;;;;;5.82;4.57;;;;;;;18.31;56.37;101454.53;5016158;28;20052;-72
2023/06/13 05:08:34;;;;;;;4.80;4.40;;;;;;;18.32;56.25;101446.50;5037228;28;20033;-72
2023/06/13 05:11:00;;;;;;;6.45;4.60;;;;;;;18.37;55.96;101451.50;5034795;28;20363;-72
2023/06/13 05:13:25;;;;;;;7.53;5.03;;;;;;;18.40;55.52;101446.00;5037262;28;20056;-72
2023/06/13 05:15:51;;;;;;;5.53;4.75;;;;;;;18.42;55.52;101455.53;5035952;28;20063;-72
2023/06/13 05:18:17;;;;;;;7.32;4.72;;;;;;;18.47;55.64;101449.97;5034871;28;20247;-72
2023/06/13 05:20:43;;;;;;;5.35;4.57;;;;;;;18.49;55.65;101458.66;5034969;28;20068;-72
2023/06/13 05:23:10;;;;;;;6.25;5.07;;;;;;;18.52;55.79;101458.47;5035225;28;20387;-72
2023/06/13 05:25:36;;;;;;;6.82;4.90;;;;;;;18.52;55.85;101468.22;5037537;28;20332;-72
2023/06/13 05:28:02;;;;;;;8.50;5.13;;;;;;;18.55;55.69;101466.22;5034425;28;20086;-72
2023/06/13 05:30:28;;;;;;;9.90;5.22;;;;;;;18.60;55.28;101469.44;5037119;28;20063;-72
2023/06/13 05:32:54;;;;;;;11.88;4.60;;;;;;;18.62;54.51;101466.69;5036545;28;20037;-72
2023/06/13 05:35:19;;;;;;;6.85;5.03;;;;;;;18.67;55.12;101469.88;5037163;28;20025;-72
2023/06/13 05:37:46;;;;;;;7.38;5.45;;;;;;;18.71;54.46;101467.88;5037953;28;20033;-72
2023/06/13 05:40:12;;;;;;;8.77;4.47;;;;;;;18.75;54.33;101472.03;5036687;28;20033;-72
2023/06/13 05:42:38;;;;;;;12.35;5.00;;;;;;;18.76;54.27;101471.09;5039374;28;20083;-72
2023/06/13 05:48:26;;;;;;;6.82;5.00;;;;;;;18.90;52.99;101472.88;5042547;28;20043;-71
2023/06/13 05:50:51;;;;;;;5.25;4.75;;;;;;;18.92;52.62;101474.47;5037284;28;20045;-71
2023/06/13 05:53:16;;;;;;;8.55;5.72;;;;;;;19.03;51.86;101473.78;5037727;28;20037;-71
2023/06/13 05:55:42;;;;;;;14.32;5.30;;;;;;;19.07;52.05;101482.38;5036489;28;20053;-71
2023/06/13 05:58:07;;;;;;;7.05;5.20;;;;;;;19.11;51.32;101479.41;5036002;28;20037;-71
2023/06/13 06:58:33;;;;;;;9.10;4.40;;;;;;;19.95;51.41;101490.56;5016671;28;20057;-71
2023/06/13 07:00:58;;;;;;;11.55;5.18;;;;;;;20.03;51.59;101490.91;4994625;28;20034;-71
2023/06/13 07:03:23;;;;;;;7.20;4.30;;;;;;;20.14;50.58;101488.34;4998597;28;20121;-71
2023/06/13 07:05:49;;;;;;;7.35;4.60;;;;;;;20.20;49.79;101494.19;4998164;28;20072;-71
2023/06/13 07:08:14;;;;;;;9.07;4.28;;;;;;;20.23;49.27;101491.28;4997588;28;20053;-71
2023/06/13 07:10:40;;;;;;;5.22;4.70;;;;;;;20.32;49.67;101495.97;5000150;28;20022;-71
2023/06/13 07:13:06;;;;;;;8.25;4.88;;;;;;;20.40;49.72;101492.75;4999070;28;20038;-71
2023/06/13 07:15:31;;;;;;;7.43;4.35;;;;;;;20.48;49.60;101493.91;4999804;28;20022;-71
2023/06/13 07:17:56;;;;;;;4.93;3.92;;;;;;;20.56;48.73;101495.16;4999717;28;20044;-71
2023/06/13 07:20:22;;;;;;;4.88;4.35;;;;;;;20.63;49.40;101496.41;4999805;28;20110;-71
2023/06/13 07:22:47;;;;;;;9.02;4.65;;;;;;;20.72;48.96;101509.09;4999467;28;20090;-71
2023/06/13 07:25:13;;;;;;;7.03;4.15;;;;;;;20.80;49.04;101498.72;4999944;28;20380;-71
2023/06/13 07:27:38;;;;;;;8.52;4.18;;;;;;;20.90;47.56;101506.84;4999670;28;20337;-71
2023/06/13 07:30:04;;;;;;;4.65;4.03;;;;;;;20.99;47.98;101503.53;4999190;28;20105;-71
2023/06/13 07:32:29;;;;;;;7.05;4.22;;;;;;;21.08;48.07;101509.97;4998781;28;20046;-71
2023/06/13 07:34:55;;;;;;;5.65;3.83;;;;;;;21.16;48.34;101496.09;4998877;28;20034;-71
2023/06/13 07:37:21;;;;;;;5.57;3.95;;;;;;;21.26;48.10;101505.94;4999297;28;20037;-71
2023/06/13 07:39:46;;;;;;;6.80;4.07;;;;;;;21.36;47.90;101499.94;4999067;28;20329;-71
2023/06/13 07:42:12;;;;;;;4.82;4.43;;;;;;;21.46;47.65;101500.94;4998953;28;20089;-71
2023/06/13 07:44:37;;;;;;;5.53;3.92;;;;;;;21.53;47.50;101504.84;4998242;28;20030;-71
2023/06/13 07:47:03;;;;;;;6.55;4.40;;;;;;;21.63;47.71;101499.66;4998883;28;20042;-71
2023/06/13 07:49:29;;;;;;;3.88;3.58;;;;;;;21.71;47.66;101496.41;5000021;28;20133;-71
2023/06/13 07:51:55;;;;;;;5.05;3.78;;;;;;;21.79;46.66;101500.19;4999387;28;20045;-71
2023/06/13 07:54:21;;;;;;;9.05;4.13;;;;;;;21.90;46.97;101511.78;4999922;28;20022;-71
2023/06/13 07:56:49;;;;;;;9.07;4.05;;;;;;;21.96;46.24;101493.50;4999047;28;20068;-71
2023/06/13 07:59:14;;;;;;;5.57;3.80;;;;;;;22.04;45.58;101499.06;5008049;28;20061;-71
2023/06/13 08:01:40;;;;;;;4.78;3.85;;;;;;;22.13;45.58;101496.66;5036585;28;20205;-71
2023/06/13 08:04:07;;;;;;;6.10;3.67;;;;;;;22.17;45.46;101493.63;5036296;28;20030;-71
2023/06/13 08:06:32;;;;;;;6.22;3.97;;;;;;;22.24;45.88;101492.16;5038016;28;20041;-71
2023/06/13 08:08:58;;;;;;;11.18;4.10;;;;;;;22.34;45.70;101497.66;5037650;28;20025;-71
2023/06/13 08:11:23;;;;;;;4.53;3.67;;;;;;;22.49;43.69;101497.41;5037221;28;20045;-71
2023/06/13 08:13:49;;;;;;;11.60;3.65;;;;;;;22.58;43.10;101491.31;5036773;28;20079;-71
2023/06/13 08:16:14;;;;;;;4.07;3.60;;;;;;;22.65;42.73;101496.97;5037775;28;20018;-71
2023/06/13 08:18:39;;;;;;;5.07;4.43;;;;;;;22.70;43.09;101481.44;5037495;28;20037;-71
2023/06/13 08:21:05;;;;;;;7.47;3.90;;;;;;;22.75;42.77;101482.75;5036690;28;20032;-71
2023/06/13 08:23:30;;;;;;;6.35;3.80;;;;;;;22.81;43.30;101489.41;5037165;28;20036;-71
2023/06/13 08:25:56;;;;;;;4.22;3.88;;;;;;;22.87;42.16;101491.59;5037135;28;20021;-71
2023/06/13 08:28:21;;;;;;;7.10;3.90;;;;;;;22.91;41.66;101487.69;5036561;28;20211;-71
2023/06/13 08:30:47;;;;;;;4.15;3.80;;;;;;;22.98;41.44;101490.69;5036804;28;20284;-71
2023/06/13 08:33:13;;;;;;;8.00;3.97;;;;;;;23.07;41.99;101499.81;5037383;28;20352;-71
2023/06/13 08:35:38;;;;;;;7.63;3.85;;;;;;;23.14;42.22;101492.94;5037873;28;20055;-71
2023/06/13 08:38:04;;;;;;;6.13;3.80;;;;;;;23.24;41.54;101493.88;5036674;28;20401;-71
2023/06/13 08:40:29;;;;;;;4.45;4.03;;;;;;;23.28;41.33;101489.13;5036306;28;20036;-71
2023/06/13 08:42:55;;;;;;;4.03;3.70;;;;;;;23.31;41.50;101489.72;5035987;28;20206;-71
2023/06/13 08:45:21;;;;;;;6.40;3.95;;;;;;;23.36;41.46;101484.00;5033487;28;20337;-71
2023/06/13 08:47:48;;;;;;;28.02;5.32;;;;;;;23.43;40.22;101495.00;5036566;28;20045;-71
2023/06/13 08:50:18;;;;;;;20.23;5.13;;;;;;;23.47;39.12;101483.94;5036977;28;20029;-72
2023/06/13 08:52:46;;;;;;;15.65;4.55;;;;;;;23.54;38.12;101487.78;5037237;28;20025;-72
2023/06/13 08:55:12;;;;;;;;;;;;;;;23.58;37.65;101478.50;5036684;28;20383;-71
2023/06/13 08:57:39;;;;;;;8.65;4.07;;;;;;;23.61;38.22;101473.88;5037472;28;20239;-72
2023/06/13 09:00:09;;;;;;;7.57;3.88;;;;;;;23.63;38.14;101478.13;5035525;28;20091;-72
2023/06/13 09:02:35;;;;;;;8.88;4.28;;;;;;;23.69;37.53;101474.91;5035983;28;20037;-72
2023/06/13 09:05:00;;;;;;;5.20;3.95;;;;;;;23.72;37.67;101474.66;5035562;28;20103;-72
2023/06/13 09:07:27;;;;;;;8.45;3.80;;;;;;;23.74;38.08;101459.31;5036546;28;20045;-72
2023/06/13 09:09:54;;;;;;;4.80;4.18;;;;;;;23.79;38.02;101464.25;5033946;28;20324;-72
2023/06/13 09:12:20;;;;;;;10.45;4.43;;;;;;;23.85;38.53;101463.75;5035693;28;20239;-72
2023/06/13 09:14:46;;;;;;;6.97;4.20;;;;;;;23.90;36.97;101458.00;5036557;28;20036;-72
2023/06/13 09:17:12;;;;;;;6.10;3.80;;;;;;;23.95;35.66;101467.31;5035788;28;20365;-72
2023/06/13 09:19:37;;;;;;;12.77;4.30;;;;;;;24.01;35.87;101467.75;5036816;28;20033;-72
2023/06/13 09:22:03;;;;;;;20.95;5.10;;;;;;;24.05;36.59;101472.72;5035982;28;20080;-72
2023/06/13 09:24:31;;;;;;;8.55;4.10;;;;;;;24.10;36.31;101469.63;5036349;28;20064;-72
2023/06/13 09:26:57;;;;;;;5.40;3.95;;;;;;;24.11;34.95;101465.97;5035858;28;20359;-72
2023/06/13 09:29:31;;;;;;;7.07;4.20;;;;;;;24.11;35.52;101464.13;5036566;28;20026;-72
2023/06/13 09:31:58;;;;;;;11.93;4.00;;;;;;;24.15;35.66;101459.34;5035889;28;20035;-72
2023/06/13 09:34:26;;;;;;;14.63;3.95;;;;;;;24.18;35.65;101456.41;5029787;28;20034;-72
2023/06/13 09:36:51;;;;;;;20.73;4.10;;;;;;;24.27;35.67;101458.28;5035968;28;20250;-72
2023/06/13 09:39:17;;;;;;;10.73;4.63;;;;;;;24.32;35.65;101455.16;5036150;28;20092;-72
2023/06/13 09:41:43;;;;;;;16.83;4.15;;;;;;;24.37;35.14;101460.13;5035496;28;20071;-72
2023/06/13 09:44:10;;;;;;;6.47;4.30;;;;;;;24.40;35.25;101457.19;5034656;28;20128;-72
2023/06/13 09:46:36;;;;;;;8.75;3.95;;;;;;;24.40;36.19;101449.16;5036378;28;20025;-72
2023/06/13 09:49:02;;;;;;;6.13;3.90;;;;;;;24.48;34.89;101436.75;5036701;28;20067;-72
2023/06/13 09:51:29;;;;;;;6.55;4.00;;;;;;;24.56;35.86;101451.31;5036968;28;20057;-72
2023/06/13 09:53:55;;;;;;;6.63;4.00;;;;;;;24.60;34.07;101434.84;5036455;28;20032;-72
2023/06/13 09:56:22;;;;;;;8.10;4.30;;;;;;;24.63;33.94;101439.91;5036843;28;20033;-72
2023/06/13 09:58:48;;;;;;;6.15;3.95;;;;;;;24.71;34.55;101442.72;5035804;28;20124;-72
2023/06/13 10:01:15;;;;;;;5.88;3.88;;;;;;;24.65;34.25;101435.25;5036547;28;20283;-72
2023/06/13 10:03:41;;;;;;;4.38;3.72;;;;;;;24.70;33.75;101427.66;5036888;28;20045;-72
2023/06/13 10:06:06;;;;;;;5.25;3.85;;;;;;;24.77;33.79;101435.13;5035995;28;20033;-73
2023/06/13 10:08:34;;;;;;;5.63;4.00;;;;;;;24.82;33.79;101427.50;5036817;28;20044;-73
2023/06/13 10:11:06;;;;;;;11.23;4.00;;;;;;;24.83;33.94;101430.06;5036654;28;20249;-72
2023/06/13 10:13:39;;;;;;;7.45;4.00;;;;;;;24.89;33.84;101429.47;5036153;28;20132;-72
2023/06/13 10:16:06;;;;;;;8.85;3.72;;;;;;;24.95;33.47;101435.25;5036579;28;20291;-72
2023/06/13 10:18:36;;;;;;;13.65;3.65;;;;;;;24.96;32.62;101429.75;5035139;28;20045;-73
2023/06/13 10:21:02;;;;;;;22.13;4.40;;;;;;;24.96;31.90;101439.63;5034842;28;20033;-73
2023/06/13 10:23:33;;;;;;;6.85;3.67;;;;;;;24.98;32.40;101433.16;5036237;28;20221;-73
2023/06/13 10:26:08;;;;;;;5.60;3.65;;;;;;;25.01;31.79;101423.97;5035348;28;20033;-72
2023/06/13 10:28:39;;;;;;;7.57;3.90;;;;;;;25.07;32.72;101426.94;5040288;28;20029;-72
2023/06/13 10:31:26;;;;;;;12.80;4.50;;;;;;;25.11;32.96;101432.84;5042619;28;20108;-73
2023/06/13 10:34:15;;;;;;;6.43;3.95;;;;;;;25.19;34.38;101418.72;5044287;28;20232;-72
2023/06/13 10:37:10;;;;;;;7.85;4.38;;;;;;;25.31;33.91;101419.44;5037041;28;20041;-72
2023/06/13 10:39:35;;;;;;;13.25;4.10;;;;;;;25.32;32.67;101421.97;5035936;28;20047;-72
2023/06/13 10:42:16;;;;;;;7.45;3.65;;;;;;;25.37;33.67;101411.66;5036763;28;20057;-72
2023/06/13 10:44:53;;;;;;;7.45;4.07;;;;;;;25.40;33.79;101407.84;5034940;28;20037;-73
2023/06/13 10:47:19;;;;;;;8.20;4.10;;;;;;;25.42;32.98;101411.22;5037090;28;20333;-73
2023/06/13 10:49:48;;;;;;;7.68;4.25;;;;;;;25.45;33.88;101406.44;5035674;28;20108;-73
2023/06/13 10:52:13;;;;;;;6.63;4.13;;;;;;;25.46;32.69;101416.13;5036900;28;20032;-73
2023/06/13 10:54:40;;;;;;;4.30;3.90;;;;;;;25.42;32.05;101412.06;5032981;28;20021;-73
2023/06/13 10:57:06;;;;;;;7.88;4.10;;;;;;;25.42;31.42;101406.72;5036710;28;20128;-73
2023/06/13 10:59:37;;;;;;;6.32;4.13;;;;;;;25.47;31.89;101407.13;5036414;28;20054;-73
2023/06/13 11:02:04;;;;;;;8.23;4.32;;;;;;;25.55;33.04;101408.22;5036531;28;20090;-73
2023/06/13 11:04:29;;;;;;;6.18;3.90;;;;;;;25.59;30.50;101415.81;5036258;28;20038;-72
2023/06/13 11:07:24;;;;;;;11.38;3.83;;;;;;;25.63;32.71;101408.31;5037153;28;20283;-72
2023/06/13 11:10:12;;;;;;;7.85;4.22;;;;;;;25.65;32.06;101409.03;5034067;28;20037;-72
2023/06/13 11:12:38;;;;;;;8.85;4.13;;;;;;;25.65;32.65;101401.00;5030158;28;20083;-72
2023/06/13 11:15:04;;;;;;;6.60;3.97;;;;;;;25.68;33.38;101398.84;5032047;28;20080;-73
2023/06/13 11:17:30;;;;;;;8.48;4.13;;;;;;;25.66;31.00;101397.31;5036489;28;20029;-73
2023/06/13 11:19:56;;;;;;;4.30;3.95;;;;;;;25.74;31.70;101394.75;5039487;28;20040;-73
2023/06/13 11:22:22;;;;;;;5.97;3.70;;;;;;;25.84;32.80;101398.22;5039125;28;20021;-73
2023/06/13 11:24:48;;;;;;;8.85;4.03;;;;;;;25.88;33.47;101390.69;5039750;28;20096;-73
2023/06/13 11:27:16;;;;;;;6.18;4.07;;;;;;;25.90;32.33;101403.97;5039039;28;20326;-72
2023/06/13 11:29:42;;;;;;;9.18;4.00;;;;;;;25.80;32.08;101396.81;5037840;28;20520;-73
2023/06/13 11:32:09;;;;;;;5.38;4.15;;;;;;;25.83;31.01;101391.16;5036180;28;20302;-72
2023/06/13 11:34:52;;;;;;;5.38;4.07;;;;;;;25.88;31.71;101392.56;5037102;28;20031;-73
2023/06/13 11:37:26;;;;;;;6.72;4.15;;;;;;;25.85;30.82;101382.97;5037496;28;20033;-72
2023/06/13 11:39:56;;;;;;;11.90;4.60;;;;;;;25.89;31.65;101389.72;5037077;28;20040;-73
2023/06/13 11:42:23;;;;;;;4.97;3.83;;;;;;;25.93;33.30;101391.13;5010221;28;20230;-73
2023/06/13 11:44:49;;;;;;;6.60;3.55;;;;;;;26.01;34.00;101396.63;5037019;28;20060;-73
2023/06/13 11:47:15;;;;;;;7.32;3.70;;;;;;;26.04;33.99;101401.66;5037439;28;20052;-73
2023/06/13 11:49:42;;;;;;;4.00;3.70;;;;;;;26.07;34.73;101399.66;5037796;28;20076;-73
2023/06/13 11:52:16;;;;;;;4.63;3.92;;;;;;;26.07;34.69;101389.81;5037183;28;20037;-73
2023/06/13 11:54:47;;;;;;;13.52;4.30;;;;;;;26.12;33.17;101402.75;5037790;28;20032;-73
2023/06/13 11:57:15;;;;;;;11.15;3.88;;;;;;;26.10;34.04;101385.97;5036750;28;20045;-73
2023/06/13 11:59:41;;;;;;;4.85;3.50;;;;;;;26.12;34.64;101386.66;5036696;28;20057;-73
2023/06/13 12:02:08;;;;;;;6.35;3.60;;;;;;;26.13;34.37;101386.50;5036536;28;20128;-73
2023/06/13 12:04:33;;;;;;;3.75;3.45;;;;;;;26.16;33.84;101382.66;5036992;28;20029;-73
2023/06/13 12:07:02;;;;;;;6.25;3.60;;;;;;;26.20;34.88;101390.28;5037070;28;20043;-73
2023/06/13 12:09:28;;;;;;;5.43;4.15;;;;;;;26.22;34.29;101382.06;5036601;28;20056;-73
2023/06/13 12:11:53;;;;;;;4.72;3.88;;;;;;;26.20;35.11;101390.28;5037339;28;20033;-73
2023/06/13 12:14:20;;;;;;;4.13;3.80;;;;;;;26.25;35.08;101384.47;5044895;28;20029;-73
2023/06/13 12:16:49;;;;;;;5.03;3.75;;;;;;;26.30;34.31;101390.19;5046111;28;20111;-73
2023/06/13 12:19:20;;;;;;;4.63;3.65;;;;;;;26.30;34.08;101394.72;5038823;28;20260;-73
2023/06/13 12:21:45;;;;;;;4.63;3.75;;;;;;;26.27;33.90;101395.03;5037105;28;20041;-73
2023/06/13 12:24:11;;;;;;;8.60;4.20;;;;;;;26.29;33.59;101393.06;5036592;28;20253;-73
2023/06/13 12:26:41;;;;;;;6.63;3.83;;;;;;;26.25;33.04;101379.09;5037570;28;20324;-73
2023/06/13 12:29:07;;;;;;;10.90;4.00;;;;;;;26.23;32.55;101389.97;5032578;28;20065;-73